createdAt,value
2024-05-09T00:01:07.289Z,25.13
2024-05-09T00:05:11.533Z,27.70
2024-05-09T00:09:13.405Z,26.87
2024-05-09T00:13:17.358Z,29.20
2024-05-09T00:17:19.081Z,29.37
2024-05-09T00:21:21.424Z,26.73
2024-05-09T00:25:22.996Z,26.83
2024-05-09T00:29:28.056Z,26.37
2024-05-09T00:33:29.904Z,25.47
2024-05-09T00:37:31.800Z,27.60
2024-05-09T00:41:33.557Z,27.50
2024-05-09T00:45:35.836Z,27.67
2024-05-09T00:49:50.366Z,28.13
2024-05-09T00:53:52.373Z,28.27
2024-05-09T00:57:55.096Z,28.00
2024-05-09T01:01:59.208Z,27.67
2024-05-09T01:06:04.210Z,28.17
2024-05-09T01:10:11.489Z,28.43
2024-05-09T01:14:15.789Z,28.13
2024-05-09T01:18:17.799Z,29.23
2024-05-09T01:22:19.705Z,29.33
2024-05-09T01:26:21.614Z,29.43
2024-05-09T01:30:31.304Z,30.23
2024-05-09T01:34:53.256Z,31.47
2024-05-09T01:38:57.861Z,31.17
2024-05-09T01:42:59.686Z,30.67
2024-05-09T01:47:01.305Z,33.17
2024-05-09T01:51:03.094Z,32.90
2024-05-09T01:55:09.703Z,30.97
2024-05-09T01:59:25.818Z,29.87
2024-05-09T02:03:27.981Z,33.50
2024-05-09T02:07:29.816Z,31.73
2024-05-09T02:11:40.318Z,33.70
2024-05-09T02:15:42.313Z,33.60
2024-05-09T02:19:49.393Z,31.30
2024-05-09T02:24:08.959Z,31.87
2024-05-09T02:28:10.738Z,34.53
2024-05-09T02:32:12.609Z,34.77
2024-05-09T02:36:17.210Z,32.23
2024-05-09T02:40:25.618Z,34.13
2024-05-09T02:44:35.036Z,35.67
2024-05-09T02:48:36.890Z,32.47
2024-05-09T02:52:38.537Z,33.33
2024-05-09T02:56:40.102Z,35.57
2024-05-09T03:00:42.960Z,32.93
2024-05-09T03:04:45.169Z,35.03
2024-05-09T03:08:48.087Z,34.00
2024-05-09T03:12:49.665Z,34.00
2024-05-09T03:16:53.816Z,35.03
2024-05-09T03:20:55.471Z,34.73
2024-05-09T03:24:57.151Z,36.43
2024-05-09T03:28:59.172Z,37.13
2024-05-09T03:33:01.227Z,37.07
2024-05-09T03:37:03.204Z,36.53
2024-05-09T03:41:05.058Z,36.30
2024-05-09T03:45:06.625Z,36.77
2024-05-09T03:49:08.374Z,36.73
2024-05-09T03:53:11.629Z,37.13
2024-05-09T03:57:13.266Z,39.37
2024-05-09T04:01:14.950Z,39.20
2024-05-09T04:05:16.793Z,41.53
2024-05-09T04:09:18.413Z,38.30
2024-05-09T04:13:19.975Z,39.80
2024-05-09T04:17:21.582Z,39.07
2024-05-09T04:21:23.815Z,38.23
2024-05-09T04:25:25.341Z,40.40
2024-05-09T04:29:27.045Z,39.43
2024-05-09T04:33:29.755Z,37.67
2024-05-09T04:37:32.467Z,39.10
2024-05-09T04:41:34.066Z,39.60
2024-05-09T04:45:36.020Z,39.03
2024-05-09T04:49:37.770Z,38.80
2024-05-09T04:53:39.990Z,38.93
2024-05-09T04:57:41.766Z,39.63
2024-05-09T05:01:43.534Z,37.73
2024-05-09T05:05:46.145Z,36.37
2024-05-09T05:09:48.432Z,36.77
2024-05-09T05:13:50.197Z,31.67
2024-05-09T05:18:05.758Z,27.40
2024-05-09T05:22:07.572Z,25.73
2024-05-09T05:26:09.390Z,27.37
2024-05-09T05:30:17.611Z,25.87
2024-05-09T05:34:22.867Z,27.37
2024-05-09T05:38:27.434Z,22.17
2024-05-09T05:42:30.103Z,20.53
2024-05-09T05:46:31.959Z,19.30
2024-05-09T05:50:36.636Z,19.57
2024-05-09T05:54:40.188Z,19.33
2024-05-09T05:58:43.197Z,18.23
2024-05-09T06:02:45.048Z,18.40
2024-05-09T06:06:46.747Z,19.10
2024-05-09T06:10:48.523Z,18.38
2024-05-09T06:14:50.244Z,18.70
2024-05-09T06:18:52.219Z,18.60
2024-05-09T06:22:53.944Z,19.25
2024-05-09T06:26:55.669Z,19.75
2024-05-09T06:30:57.284Z,18.55
2024-05-09T06:34:58.914Z,22.17
2024-05-09T06:39:00.555Z,18.70
2024-05-09T06:43:04.139Z,19.30
2024-05-09T06:47:05.777Z,19.70
2024-05-09T06:51:07.456Z,20.98
2024-05-09T06:55:09.135Z,22.60
2024-05-09T06:59:10.854Z,21.40
2024-05-09T07:03:16.869Z,21.50
2024-05-09T07:07:20.076Z,22.90
2024-05-09T07:11:21.774Z,23.00
2024-05-09T07:15:23.495Z,23.88
2024-05-09T07:19:25.195Z,24.75
2024-05-09T07:23:28.282Z,25.67
2024-05-09T07:27:30.045Z,25.73
2024-05-09T07:31:34.919Z,25.25
2024-05-09T07:39:54.823Z,24.75
2024-05-09T07:43:56.532Z,26.23
2024-05-09T07:49:44.348Z,24.92
2024-05-09T07:53:30.378Z,26.23
2024-05-09T07:56:46.840Z,24.05
2024-05-09T08:00:48.654Z,24.13
2024-05-09T08:04:50.360Z,23.77
2024-05-09T08:08:52.227Z,24.90
2024-05-09T08:12:54.254Z,24.85
2024-05-09T08:16:55.974Z,26.13
2024-05-09T08:20:58.274Z,25.63
2024-05-09T08:25:00.025Z,25.67
2024-05-09T08:29:01.761Z,24.88
2024-05-09T08:33:04.730Z,24.73
2024-05-09T08:37:13.122Z,23.02
2024-05-09T08:41:21.303Z,24.48
2024-05-09T08:45:23.275Z,22.73
2024-05-09T08:49:26.405Z,25.58
2024-05-09T08:53:28.170Z,24.60
2024-05-09T08:57:35.812Z,23.55
2024-05-09T09:01:41.611Z,22.75
2024-05-09T09:05:54.278Z,22.67
2024-05-09T09:09:56.432Z,19.63
2024-05-09T09:13:58.154Z,18.85
2024-05-09T09:18:00.873Z,19.42
2024-05-09T09:22:03.013Z,18.45
2024-05-09T09:26:05.114Z,19.48
2024-05-09T09:30:15.507Z,16.13
2024-05-09T09:34:27.978Z,13.57
2024-05-09T09:38:31.598Z,13.27
2024-05-09T09:42:35.371Z,12.43
2024-05-09T09:46:38.422Z,12.63
2024-05-09T09:50:41.611Z,11.98
2024-05-09T09:54:45.258Z,10.80
2024-05-09T09:58:48.360Z,9.68
2024-05-09T10:02:50.018Z,6.97
2024-05-09T10:06:59.546Z,5.85
2024-05-09T10:11:04.453Z,5.13
2024-05-09T10:15:09.078Z,5.15
2024-05-09T10:19:30.998Z,5.25
2024-05-09T10:23:34.540Z,4.00
2024-05-09T10:27:36.420Z,4.05
2024-05-09T10:31:41.602Z,4.63
2024-05-09T10:35:51.740Z,4.72
2024-05-09T10:39:57.105Z,5.15
2024-05-09T10:43:58.778Z,5.88
2024-05-09T10:48:00.803Z,5.05
2024-05-09T10:52:03.971Z,5.20
2024-05-09T10:56:05.972Z,5.25
2024-05-09T11:00:15.603Z,6.32
2024-05-09T11:04:28.297Z,6.50
2024-05-09T11:08:32.129Z,6.40
2024-05-09T11:12:34.068Z,7.43
2024-05-09T11:16:41.362Z,7.13
2024-05-09T11:20:43.484Z,7.65
2024-05-09T11:24:45.456Z,6.78
2024-05-09T11:28:47.586Z,7.07
2024-05-09T11:32:51.820Z,7.40
2024-05-09T11:36:56.839Z,8.65
2024-05-09T11:40:58.737Z,9.10
2024-05-09T11:45:00.480Z,8.25
2024-05-09T11:49:02.539Z,7.72
2024-05-09T11:53:04.628Z,8.43
2024-05-09T11:57:06.414Z,8.95
2024-05-09T12:01:08.242Z,7.28
2024-05-09T12:05:10.234Z,6.70
2024-05-09T12:09:11.899Z,6.82
2024-05-09T12:13:13.749Z,6.15
2024-05-09T12:17:15.560Z,6.55
2024-05-09T12:21:17.512Z,7.32
2024-05-09T12:25:19.255Z,6.50
2024-05-09T12:29:21.207Z,7.13
2024-05-09T12:33:22.873Z,6.43
2024-05-09T12:37:24.797Z,6.25
2024-05-09T12:41:26.363Z,6.65
2024-05-09T12:45:28.212Z,6.63
2024-05-09T12:49:30.175Z,7.45
2024-05-09T12:53:31.902Z,7.88
2024-05-09T12:57:33.830Z,7.78
2024-05-09T13:01:35.642Z,7.10
2024-05-09T13:05:37.416Z,6.47
2024-05-09T13:09:39.660Z,6.35
2024-05-09T13:13:41.376Z,6.70
2024-05-09T13:17:43.282Z,6.75
2024-05-09T13:21:51.793Z,7.63
2024-05-09T13:25:53.538Z,6.60
2024-05-09T13:29:57.329Z,8.80
2024-05-09T13:34:01.113Z,9.00
2024-05-09T13:38:03.451Z,8.93
2024-05-09T13:42:06.066Z,7.15
2024-05-09T13:46:09.293Z,8.50
2024-05-09T13:50:16.936Z,8.57
2024-05-09T13:54:25.684Z,9.85
2024-05-09T13:58:27.372Z,9.02
2024-05-09T14:02:30.909Z,8.25
2024-05-09T14:06:32.720Z,8.25
2024-05-09T14:10:35.607Z,7.88
2024-05-09T14:14:37.277Z,8.75
2024-05-09T14:18:41.302Z,8.50
2024-05-09T14:22:42.950Z,9.63
2024-05-09T14:26:44.659Z,9.45
2024-05-09T14:30:46.363Z,8.88
2024-05-09T14:34:48.088Z,7.93
2024-05-09T14:38:49.794Z,9.40
2024-05-09T14:42:51.563Z,8.55
2024-05-09T14:46:53.301Z,9.10
2024-05-09T14:50:55.068Z,9.00
2024-05-09T14:55:00.345Z,10.07
2024-05-09T14:59:03.325Z,8.02
2024-05-09T15:03:05.538Z,8.65
2024-05-09T15:07:08.349Z,8.45
2024-05-09T15:11:11.958Z,7.82
2024-05-09T15:15:13.697Z,8.05
2024-05-09T15:19:15.362Z,8.25
2024-05-09T15:23:17.325Z,8.93
2024-05-09T15:27:19.145Z,8.00
2024-05-09T15:31:20.884Z,8.88
2024-05-09T15:35:38.255Z,9.32
2024-05-09T15:39:41.776Z,8.57
2024-05-09T15:43:43.417Z,9.00
2024-05-09T15:47:45.382Z,8.82
2024-05-09T15:51:48.602Z,11.13
2024-05-09T15:55:50.354Z,10.70
2024-05-09T15:59:52.192Z,10.32
2024-05-09T16:03:54.081Z,10.95
2024-05-09T16:07:56.047Z,10.45
2024-05-09T16:11:57.696Z,10.40
2024-05-09T16:16:00.285Z,10.35
2024-05-09T16:20:03.879Z,9.90
2024-05-09T16:24:08.977Z,8.75
2024-05-09T16:28:16.199Z,9.30
2024-05-09T16:32:22.607Z,7.93
2024-05-09T16:36:26.617Z,7.40
2024-05-09T16:40:36.316Z,8.55
2024-05-09T16:44:44.372Z,9.10
2024-05-09T16:48:50.250Z,9.55
2024-05-09T16:52:52.122Z,10.15
2024-05-09T16:56:53.864Z,9.48
2024-05-09T17:00:55.716Z,10.10
2024-05-09T17:04:57.382Z,12.95
2024-05-09T17:09:05.272Z,13.95
2024-05-09T17:13:10.455Z,15.70
2024-05-09T17:17:12.476Z,15.98
2024-05-09T17:21:15.726Z,16.65
2024-05-09T17:25:17.554Z,17.67
2024-05-09T17:29:21.768Z,15.55
2024-05-09T17:33:23.475Z,15.50
2024-05-09T17:37:28.021Z,16.10
2024-05-09T17:41:29.642Z,15.00
2024-05-09T17:45:31.389Z,15.30
2024-05-09T17:49:33.549Z,15.27
2024-05-09T17:53:35.463Z,14.63
2024-05-09T17:57:37.201Z,13.63
2024-05-09T18:01:38.970Z,14.45
2024-05-09T18:05:41.809Z,14.30
2024-05-09T18:09:44.672Z,13.65
2024-05-09T18:13:50.395Z,13.73
2024-05-09T18:17:52.386Z,12.25
2024-05-09T18:21:54.479Z,13.02
2024-05-09T18:25:57.223Z,12.60
2024-05-09T18:29:58.883Z,12.07
2024-05-09T18:34:00.777Z,11.38
2024-05-09T18:38:07.552Z,11.82
2024-05-09T18:42:12.971Z,10.95
2024-05-09T18:46:14.619Z,12.00
2024-05-09T18:50:24.684Z,11.38
2024-05-09T18:54:33.985Z,11.57
2024-05-09T18:58:35.763Z,11.20
2024-05-09T19:02:37.761Z,10.85
2024-05-09T19:06:41.044Z,10.35
2024-05-09T19:11:11.877Z,11.63
2024-05-09T19:15:13.661Z,10.40
2024-05-09T19:19:15.567Z,10.32
2024-05-09T19:23:17.393Z,10.40
2024-05-09T19:27:19.161Z,11.40
2024-05-09T19:31:21.229Z,12.68
2024-05-09T19:35:22.873Z,10.40
2024-05-09T19:39:25.088Z,10.02
2024-05-09T19:43:27.260Z,10.60
2024-05-09T19:47:29.244Z,9.82
2024-05-09T19:51:32.384Z,10.02
2024-05-09T19:55:35.090Z,10.52
2024-05-09T19:59:36.967Z,10.02
2024-05-09T20:03:46.391Z,9.38
2024-05-09T20:07:48.043Z,9.02
2024-05-09T20:11:49.727Z,9.10
2024-05-09T20:15:51.595Z,8.48
2024-05-09T20:19:53.455Z,8.20
2024-05-09T20:23:55.157Z,8.05
2024-05-09T20:27:56.988Z,8.43
2024-05-09T20:31:58.723Z,9.05
2024-05-09T20:36:02.200Z,8.73
2024-05-09T20:40:07.990Z,8.82
2024-05-09T20:44:11.832Z,8.10
2024-05-09T20:48:13.845Z,8.77
2024-05-09T20:52:15.809Z,9.10
2024-05-09T20:56:22.154Z,9.13
2024-05-09T21:00:30.337Z,11.20
2024-05-09T21:04:42.338Z,9.77
2024-05-09T21:08:44.034Z,9.85
2024-05-09T21:12:45.936Z,10.57
2024-05-09T21:16:47.668Z,9.57
2024-05-09T21:20:49.402Z,9.82
2024-05-09T21:24:51.129Z,9.18
2024-05-09T21:28:52.902Z,9.57
2024-05-09T21:32:54.776Z,9.45
2024-05-09T21:36:58.048Z,9.93
2024-05-09T21:40:59.752Z,10.48
2024-05-09T21:45:06.198Z,10.70
2024-05-09T21:49:08.158Z,10.68
2024-05-09T21:53:11.196Z,10.48
2024-05-09T21:57:14.559Z,12.05
2024-05-09T22:01:16.349Z,11.90
2024-05-09T22:05:18.187Z,12.20
2024-05-09T22:09:19.888Z,11.88
2024-05-09T22:13:21.837Z,11.07
2024-05-09T22:17:25.626Z,11.88
2024-05-09T22:21:27.505Z,11.13
2024-05-09T22:25:30.900Z,11.82
2024-05-09T22:29:33.400Z,12.30
2024-05-09T22:33:35.296Z,12.35
2024-05-09T22:37:37.432Z,13.23
2024-05-09T22:41:40.348Z,13.10
2024-05-09T22:45:42.146Z,12.65
2024-05-09T22:49:43.798Z,12.57
2024-05-09T22:53:45.446Z,13.43
2024-05-09T22:57:47.162Z,13.60
2024-05-09T23:01:48.844Z,13.98
2024-05-09T23:05:50.587Z,15.40
2024-05-09T23:09:52.294Z,15.63
2024-05-09T23:13:53.821Z,15.63
2024-05-09T23:17:55.803Z,15.13
2024-05-09T23:21:57.831Z,15.55
2024-05-09T23:25:59.651Z,14.90
2024-05-09T23:30:01.236Z,15.40
2024-05-09T23:34:02.889Z,15.43
2024-05-09T23:38:04.999Z,15.80
2024-05-09T23:42:06.802Z,14.57
2024-05-09T23:46:10.985Z,15.57
2024-05-09T23:50:17.058Z,15.37
2024-05-09T23:54:25.201Z,15.40
2024-05-09T23:58:30.029Z,15.67
